Time;durP1;ratioP1;P1;durP2;ratioP2;P2;SDS_P1;SDS_P2;PMS_P1;PMS_P2;Temp;Humidity;BMP_temperature;BMP_pressure;BME280_temperature;BME280_humidity;BME280_pressure;Samples;Min_cycle;Max_cycle;Signal;HPM_P1;HPM_P2
2023/06/04 00:01:18;;;;;;;5.8;4;;;;;;;15.7;81.99805;937.0642;;;;
2023/06/04 00:03:46;;;;;;;5;4;;;;;;;15.73;81.95703;937.0045;;;;
2023/06/04 00:06:11;;;;;;;4.8;4.1;;;;;;;15.75;81.74219;936.9745;;;;
2023/06/04 00:08:40;;;;;;;5.5;4.5;;;;;;;15.81;81.37305;936.9271;;;;
2023/06/04 00:11:05;;;;;;;5.6;4.5;;;;;;;15.75;81.59277;936.972;;;;
2023/06/04 00:13:32;;;;;;;5;4.1;;;;;;;15.78;81.49316;936.9877;;;;
2023/06/04 00:15:57;;;;;;;4.7;4.2;;;;;;;15.75;81.60352;936.9086;;;;
2023/06/04 00:18:22;;;;;;;5;4.4;;;;;;;15.74;81.50781;936.9409;;;;
2023/06/04 00:21:14;;;;;;;4.8;4;;;;;;;15.68;81.90234;936.993;;;;
2023/06/04 00:23:43;;;;;;;5.3;4.3;;;;;;;15.69;81.8584;936.9833;;;;
2023/06/04 00:26:09;;;;;;;6.7;4.3;;;;;;;15.74;81.47363;936.9562;;;;
2023/06/04 00:28:34;;;;;;;6.3;4.6;;;;;;;15.62;81.80957;936.9504;;;;
2023/06/04 00:31:02;;;;;;;5.3;4.6;;;;;;;15.55;82.1084;936.9235;;;;
2023/06/04 00:33:27;;;;;;;6.1;4.1;;;;;;;15.52;82.32227;936.9285;;;;
2023/06/04 00:35:55;;;;;;;5;4.2;;;;;;;15.58;82.07813;936.9199;;;;
2023/06/04 00:38:20;;;;;;;5.1;4.6;;;;;;;15.63;81.58008;936.9182;;;;
2023/06/04 00:40:49;;;;;;;4.7;4;;;;;;;15.65;81.5166;936.8939;;;;
2023/06/04 00:43:14;;;;;;;6.9;4.5;;;;;;;15.64;81.54883;936.9044;;;;
2023/06/04 00:45:39;;;;;;;4.8;4.3;;;;;;;15.64;81.43164;936.906;;;;
2023/06/04 00:48:05;;;;;;;5.7;4.5;;;;;;;15.6;81.4834;936.9536;;;;
2023/06/04 00:50:33;;;;;;;5.9;4.5;;;;;;;15.49;81.82227;936.9641;;;;
2023/06/04 00:52:57;;;;;;;5.1;4.4;;;;;;;15.48;81.7959;937.0069;;;;
2023/06/04 00:55:25;;;;;;;5.5;4.6;;;;;;;15.38;82.26074;936.9636;;;;
2023/06/04 00:57:50;;;;;;;6.6;4.4;;;;;;;15.25;82.88281;937.0661;;;;
2023/06/04 01:00:17;;;;;;;4.7;4.3;;;;;;;15.2;83.08105;937.0742;;;;
2023/06/04 01:02:43;;;;;;;6;5.1;;;;;;;15.09;83.56934;937.0858;;;;
2023/06/04 01:05:16;;;;;;;7.7;5.2;;;;;;;14.93;83.90723;937.0614;;;;
2023/06/04 01:07:45;;;;;;;5.3;4.8;;;;;;;14.84;84.8125;937.0494;;;;
2023/06/04 01:10:08;;;;;;;5.7;4.6;;;;;;;;;;;;;
2023/06/04 01:12:33;;;;;;;7.2;4.6;;;;;;;;;;;;;
2023/06/04 01:14:58;;;;;;;5.1;4.4;;;;;;;;;;;;;
2023/06/04 01:17:28;;;;;;;5.1;4.6;;;;;;;;;;;;;
2023/06/04 01:19:51;;;;;;;7.4;5.4;;;;;;;;;;;;;
2023/06/04 01:22:20;;;;;;;5.4;4.7;;;;;;;;;;;;;
2023/06/04 01:24:43;;;;;;;6.4;4.7;;;;;;;;;;;;;
2023/06/04 01:27:08;;;;;;;7;4.9;;;;;;;;;;;;;
2023/06/04 01:29:36;;;;;;;6.3;5;;;;;;;;;;;;;
2023/06/04 01:32:01;;;;;;;6.4;4.9;;;;;;;;;;;;;
2023/06/04 01:34:27;;;;;;;5.8;4.8;;;;;;;;;;;;;
2023/06/04 01:36:52;;;;;;;9.3;4.8;;;;;;;;;;;;;
2023/06/04 01:39:17;;;;;;;6.3;4.9;;;;;;;;;;;;;
2023/06/04 01:41:44;;;;;;;8.6;4.9;;;;;;;;;;;;;
2023/06/04 01:44:09;;;;;;;5.1;4.6;;;;;;;;;;;;;
2023/06/04 01:46:35;;;;;;;5.7;4.6;;;;;;;;;;;;;
2023/06/04 01:49:01;;;;;;;5;4.5;;;;;;;;;;;;;
2023/06/04 01:51:26;;;;;;;5.2;4.7;;;;;;;;;;;;;
2023/06/04 01:53:51;;;;;;;5.1;4.6;;;;;;;;;;;;;
2023/06/04 01:56:16;;;;;;;5.6;4.7;;;;;;;;;;;;;
2023/06/04 01:58:41;;;;;;;5.2;4.7;;;;;;;;;;;;;
2023/06/04 02:01:06;;;;;;;5.4;4.3;;;;;;;;;;;;;
2023/06/04 02:03:38;;;;;;;6.4;4.4;;;;;;;;;;;;;
2023/06/04 02:05:58;;;;;;;4.6;4.2;;;;;;;;;;;;;
2023/06/04 02:08:25;;;;;;;4.7;4.2;;;;;;;;;;;;;
2023/06/04 02:10:48;;;;;;;5.1;4.1;;;;;;;;;;;;;
2023/06/04 02:13:13;;;;;;;6.3;4.8;;;;;;;;;;;;;
2023/06/04 02:15:38;;;;;;;7.9;5.7;;;;;;;;;;;;;
2023/06/04 02:18:05;;;;;;;6.5;5;;;;;;;;;;;;;
2023/06/04 02:20:29;;;;;;;5.5;4.5;;;;;;;;;;;;;
2023/06/04 02:22:54;;;;;;;6.6;4.5;;;;;;;;;;;;;
2023/06/04 02:25:20;;;;;;;6;4.6;;;;;;;;;;;;;
2023/06/04 02:27:47;;;;;;;5.3;4.3;;;;;;;;;;;;;
2023/06/04 02:30:12;;;;;;;5.3;4.7;;;;;;;;;;;;;
2023/06/04 02:32:40;;;;;;;6.7;5.1;;;;;;;;;;;;;
2023/06/04 02:35:05;;;;;;;5.3;4.8;;;;;;;;;;;;;
2023/06/04 02:37:33;;;;;;;5.7;4.5;;;;;;;;;;;;;
2023/06/04 02:39:58;;;;;;;4.9;4.4;;;;;;;;;;;;;
2023/06/04 02:42:23;;;;;;;5;4.5;;;;;;;;;;;;;
2023/06/04 02:44:48;;;;;;;5.2;4.7;;;;;;;;;;;;;
2023/06/04 02:47:13;;;;;;;6.1;4.8;;;;;;;;;;;;;
2023/06/04 02:49:39;;;;;;;5.7;4.3;;;;;;;;;;;;;
2023/06/04 02:52:04;;;;;;;5.2;4.4;;;;;;;;;;;;;
2023/06/04 02:54:41;;;;;;;5.4;4.4;;;;;;;;;;;;;
2023/06/04 02:57:06;;;;;;;7.2;4.6;;;;;;;;;;;;;
2023/06/04 02:59:32;;;;;;;6.6;4.9;;;;;;;;;;;;;
2023/06/04 03:01:57;;;;;;;5.6;4.6;;;;;;;;;;;;;
2023/06/04 03:04:22;;;;;;;5.5;4.5;;;;;;;;;;;;;
2023/06/04 03:06:47;;;;;;;4.7;4.3;;;;;;;;;;;;;
2023/06/04 03:09:13;;;;;;;6.2;4.5;;;;;;;;;;;;;
2023/06/04 03:11:38;;;;;;;5.7;4.7;;;;;;;;;;;;;
2023/06/04 03:14:03;;;;;;;5.9;4.8;;;;;;;;;;;;;
2023/06/04 03:16:29;;;;;;;6.9;4.7;;;;;;;;;;;;;
2023/06/04 03:18:55;;;;;;;7.6;5;;;;;;;;;;;;;
2023/06/04 03:21:20;;;;;;;5;4.5;;;;;;;;;;;;;
2023/06/04 03:26:12;;;;;;;6.8;4.3;;;;;;;;;;;;;
2023/06/04 03:28:37;;;;;;;6;5;;;;;;;;;;;;;
2023/06/04 03:31:02;;;;;;;7.3;4.7;;;;;;;;;;;;;
2023/06/04 03:33:27;;;;;;;5.3;4.8;;;;;;;;;;;;;
2023/06/04 03:35:52;;;;;;;6.1;4.8;;;;;;;;;;;;;
2023/06/04 03:38:20;;;;;;;6.1;4.6;;;;;;;;;;;;;
2023/06/04 03:40:45;;;;;;;5.6;4.6;;;;;;;;;;;;;
2023/06/04 03:43:11;;;;;;;6.9;5;;;;;;;;;;;;;
2023/06/04 03:45:36;;;;;;;6.9;5.4;;;;;;;;;;;;;
2023/06/04 03:48:02;;;;;;;8.1;5.4;;;;;;;;;;;;;
2023/06/04 03:50:27;;;;;;;6.5;5.1;;;;;;;;;;;;;
2023/06/04 03:52:53;;;;;;;7.5;5.1;;;;;;;;;;;;;
2023/06/04 03:55:18;;;;;;;6;4.6;;;;;;;;;;;;;
2023/06/04 03:57:45;;;;;;;6;4.9;;;;;;;;;;;;;
2023/06/04 04:02:31;;;;;;;5.4;4.4;;;;;;;13.67;86.59863;937.6161;;;;
2023/06/04 04:05:01;;;;;;;4.5;4.1;;;;;;;13.69;86.2002;937.5815;;;;
2023/06/04 04:07:26;;;;;;;5.7;4.5;;;;;;;13.74;85.96777;937.655;;;;
2023/06/04 04:10:01;;;;;;;4.9;4.3;;;;;;;13.82;85.5459;937.5999;;;;
2023/06/04 04:12:26;;;;;;;5.8;4.3;;;;;;;13.74;85.65723;937.711;;;;
2023/06/04 04:14:51;;;;;;;5;3.9;;;;;;;13.74;85.70313;937.7278;;;;
2023/06/04 04:17:16;;;;;;;4.6;3.8;;;;;;;13.75;85.6123;937.735;;;;
2023/06/04 04:19:46;;;;;;;6.8;4;;;;;;;13.7;85.98145;937.6976;;;;
2023/06/04 04:22:12;;;;;;;5;4.3;;;;;;;13.8;86.00098;937.7341;;;;
2023/06/04 04:24:37;;;;;;;5.5;4.1;;;;;;;13.89;85.31934;937.8036;;;;
2023/06/04 04:27:03;;;;;;;5.7;4.4;;;;;;;13.99;84.88965;937.7519;;;;
2023/06/04 04:29:27;;;;;;;5.4;4;;;;;;;14.16;85.12793;937.7729;;;;
2023/06/04 04:31:56;;;;;;;4.3;3.9;;;;;;;14.25;84.9043;937.7336;;;;
2023/06/04 04:34:21;;;;;;;4.9;4.4;;;;;;;14.38;84.04395;937.8361;;;;
2023/06/04 04:36:52;;;;;;;5;4.3;;;;;;;14.26;83.87109;937.8232;;;;
2023/06/04 04:39:14;;;;;;;4.9;4.1;;;;;;;14.31;84.01855;937.8638;;;;
2023/06/04 04:41:43;;;;;;;5;3.9;;;;;;;14.21;83.73438;937.8704;;;;
2023/06/04 04:44:09;;;;;;;5.5;4.3;;;;;;;14.1;84.36914;937.8535;;;;
2023/06/04 04:46:38;;;;;;;4.7;4.2;;;;;;;14.2;84.57324;937.9178;;;;
2023/06/04 04:49:08;;;;;;;4.7;4.2;;;;;;;14.28;84.09375;937.8375;;;;
2023/06/04 04:51:39;;;;;;;5.7;4.3;;;;;;;14.28;84.53125;937.8575;;;;
2023/06/04 04:54:06;;;;;;;5.1;4.1;;;;;;;14.2;84.75684;937.9017;;;;
2023/06/04 04:56:31;;;;;;;4.9;3.6;;;;;;;14.4;84.48633;937.8585;;;;
2023/06/04 04:58:59;;;;;;;4.7;4.2;;;;;;;14.6;84.80176;937.8978;;;;
2023/06/04 05:01:30;;;;;;;4.3;3.6;;;;;;;14.72;82.77051;937.8901;;;;
2023/06/04 05:03:55;;;;;;;4.8;4;;;;;;;14.83;83.51953;937.9041;;;;
2023/06/04 05:06:23;;;;;;;4.6;4;;;;;;;14.84;82.61035;937.8935;;;;
2023/06/04 05:08:56;;;;;;;3.8;3.4;;;;;;;14.96;82.38965;937.899;;;;
2023/06/04 05:11:27;;;;;;;4.6;3.7;;;;;;;15.03;81.5957;937.9581;;;;
2023/06/04 05:13:57;;;;;;;5;3.7;;;;;;;15.11;82.02637;937.9598;;;;
2023/06/04 05:22:15;;;;;;;3.9;3.4;;;;;;;15.36;80.94141;938.0942;;;;
2023/06/04 05:24:38;;;;;;;4.2;3;;;;;;;15.48;80.31738;938.1127;;;;
2023/06/04 05:27:09;;;;;;;5.4;3.5;;;;;;;15.7;80.56543;938.0822;;;;
2023/06/04 05:29:38;;;;;;;4;3.2;;;;;;;16.91;75.93359;938.0308;;;;
2023/06/04 05:32:02;;;;;;;3;2.7;;;;;;;17.7;70.19727;938.0681;;;;
2023/06/04 05:34:29;;;;;;;2.8;2.5;;;;;;;18.55;65.62402;938.1144;;;;
2023/06/04 05:42:59;;;;;;;4.1;2.7;;;;;;;17.13;71.2666;938.1249;;;;
2023/06/04 05:45:35;;;;;;;3.5;2.8;;;;;;;16.94;73.28516;938.0916;;;;
2023/06/04 05:48:01;;;;;;;3.8;2.9;;;;;;;16.9;72.67676;938.0792;;;;
2023/06/04 05:50:26;;;;;;;3.4;3.1;;;;;;;16.65;74.6377;938.1113;;;;
2023/06/04 05:52:51;;;;;;;4.5;3;;;;;;;17.35;72.57715;938.1064;;;;
2023/06/04 05:55:19;;;;;;;3.7;3.1;;;;;;;18.36;69.63965;938.1125;;;;
2023/06/04 05:57:43;;;;;;;4.3;2.9;;;;;;;19.24;65.7373;938.1511;;;;
2023/06/04 06:00:33;;;;;;;3.4;3.1;;;;;;;19.21;64.55762;938.1264;;;;
2023/06/04 06:03:06;;;;;;;4.1;3;;;;;;;19.43;63.4707;938.1321;;;;
2023/06/04 06:08:25;;;;;;;3.4;2.7;;;;;;;21.8;56.8877;938.1378;;;;
2023/06/04 06:10:55;;;;;;;3.3;2.5;;;;;;;22.9;53.71777;938.0789;;;;
2023/06/04 06:13:19;;;;;;;3.2;2.7;;;;;;;21.83;54.41992;938.0106;;;;
2023/06/04 06:15:46;;;;;;;3.8;2.9;;;;;;;22.07;55.2002;938.1227;;;;
2023/06/04 06:18:14;;;;;;;3.9;3;;;;;;;23.1;53.1416;938.0872;;;;
2023/06/04 06:20:39;;;;;;;3.1;2.8;;;;;;;23.61;49.62695;938.0269;;;;
2023/06/04 06:23:04;;;;;;;3.6;2.8;;;;;;;22.56;52.81836;938.1033;;;;
2023/06/04 06:25:32;;;;;;;4.1;3.4;;;;;;;23.53;50.60645;938.0059;;;;
2023/06/04 06:27:58;;;;;;;3;2.7;;;;;;;24.52;49.43359;938.0037;;;;
2023/06/04 06:30:28;;;;;;;3.3;2.7;;;;;;;25.74;44.95898;938.0233;;;;
2023/06/04 06:32:55;;;;;;;2.8;2.5;;;;;;;25.52;45.84668;938.0455;;;;
2023/06/04 06:35:20;;;;;;;3.1;2.6;;;;;;;25.06;47.18066;938.0648;;;;
2023/06/04 06:37:51;;;;;;;2.9;2.6;;;;;;;25.95;46.36426;938.0736;;;;
2023/06/04 06:40:20;;;;;;;3.5;2.9;;;;;;;25.44;46.42969;937.9967;;;;
2023/06/04 06:42:47;;;;;;;3.8;3.1;;;;;;;25.9;44.18359;937.9913;;;;
2023/06/04 06:45:20;;;;;;;2.9;2.6;;;;;;;26.61;44.38379;938.0022;;;;
2023/06/04 06:47:45;;;;;;;3.6;2.8;;;;;;;28.16;39.85547;937.9483;;;;
2023/06/04 06:50:16;;;;;;;3.4;2.3;;;;;;;28.28;40.68555;937.9272;;;;
2023/06/04 06:55:29;;;;;;;2.9;2.6;;;;;;;28.38;40.87402;937.9256;;;;
2023/06/04 06:57:59;;;;;;;3;2.5;;;;;;;28;43.07227;937.8892;;;;
2023/06/04 07:00:24;;;;;;;4.3;2.6;;;;;;;28.84;39.71289;937.8758;;;;
2023/06/04 07:02:53;;;;;;;2.7;2.5;;;;;;;28.05;39.39355;937.8527;;;;
2023/06/04 07:05:25;;;;;;;4.5;3.1;;;;;;;29.74;37.71777;937.812;;;;
2023/06/04 07:07:57;;;;;;;3.4;2.5;;;;;;;28.84;38.85547;937.8069;;;;
2023/06/04 07:10:21;;;;;;;3.1;2.8;;;;;;;28.64;39.18457;937.8251;;;;
2023/06/04 07:12:53;;;;;;;3.3;3;;;;;;;29.67;37.56836;937.7734;;;;
2023/06/04 07:15:24;;;;;;;4.9;2.9;;;;;;;28.17;41.53125;937.8362;;;;
2023/06/04 07:17:53;;;;;;;3.5;2.9;;;;;;;27.91;41.34082;937.8071;;;;
2023/06/04 07:20:20;;;;;;;4.1;2.7;;;;;;;28.43;39.32031;937.7776;;;;
2023/06/04 07:22:50;;;;;;;3.9;2.9;;;;;;;27.81;40.80957;937.7122;;;;
2023/06/04 07:25:23;;;;;;;3.1;2.8;;;;;;;26.91;40.81055;937.8153;;;;
2023/06/04 07:27:57;;;;;;;4.6;2.9;;;;;;;26.08;43.47949;937.8395;;;;
2023/06/04 07:30:20;;;;;;;5.6;2.9;;;;;;;26.77;43.6875;937.7842;;;;
2023/06/04 07:32:48;;;;;;;5.8;2.9;;;;;;;27.53;39.95313;937.7131;;;;
2023/06/04 07:35:19;;;;;;;4;2.9;;;;;;;27.42;41.1416;937.717;;;;
2023/06/04 07:37:51;;;;;;;2.9;2.6;;;;;;;26.43;42.37695;937.6876;;;;
2023/06/04 07:40:16;;;;;;;3.8;2.7;;;;;;;26.17;44.3291;937.7173;;;;
2023/06/04 07:42:41;;;;;;;2.9;2.6;;;;;;;27.25;42.00391;937.709;;;;
2023/06/04 07:45:06;;;;;;;3.8;3;;;;;;;25.62;45.7041;937.6739;;;;
2023/06/04 07:47:31;;;;;;;2.9;2.6;;;;;;;27.87;40.51855;937.6727;;;;
2023/06/04 07:50:00;;;;;;;3.3;2.9;;;;;;;29.48;38.375;937.6429;;;;
2023/06/04 07:52:25;;;;;;;3.8;2.8;;;;;;;29.58;35.78516;937.6961;;;;
2023/06/04 07:54:54;;;;;;;3.6;2.5;;;;;;;29.21;37.33984;937.7004;;;;
2023/06/04 07:57:19;;;;;;;4;2.6;;;;;;;29.83;36.53223;937.694;;;;
2023/06/04 07:59:49;;;;;;;4.4;3.1;;;;;;;27.64;41.57813;937.6883;;;;
2023/06/04 08:02:20;;;;;;;26.9;4.3;;;;;;;26.25;45.49512;937.6329;;;;
2023/06/04 08:04:47;;;;;;;3.7;3;;;;;;;25.9;45.01172;937.7178;;;;
2023/06/04 08:07:12;;;;;;;4.3;2.7;;;;;;;25.98;46.87598;937.6696;;;;
2023/06/04 08:09:39;;;;;;;3.9;2.9;;;;;;;27.36;44.19629;937.6978;;;;
2023/06/04 08:12:04;;;;;;;4.6;3.4;;;;;;;28.97;37.85547;937.6646;;;;
2023/06/04 08:14:30;;;;;;;4.4;3.4;;;;;;;25.19;43.65332;937.652;;;;
2023/06/04 08:16:57;;;;;;;3.8;3.1;;;;;;;23.74;47.93555;937.7313;;;;
2023/06/04 08:19:23;;;;;;;4;3.4;;;;;;;23.28;50.69531;937.7437;;;;
2023/06/04 08:21:51;;;;;;;6.3;3.2;;;;;;;23.47;51.89258;937.7349;;;;
2023/06/04 08:24:16;;;;;;;6;3.3;;;;;;;24.16;50.01855;937.6789;;;;
2023/06/04 08:26:44;;;;;;;4.8;3.4;;;;;;;23.48;50.51855;937.6644;;;;
2023/06/04 08:29:08;;;;;;;5.3;3.4;;;;;;;25.18;46.99219;937.6688;;;;
2023/06/04 08:31:34;;;;;;;5.7;3.5;;;;;;;27.09;42.08398;937.679;;;;
2023/06/04 08:34:05;;;;;;;4.4;3.3;;;;;;;27.98;39.66113;937.6183;;;;
2023/06/04 08:36:27;;;;;;;4.5;3.2;;;;;;;27.22;42.68945;937.7011;;;;
2023/06/04 08:38:57;;;;;;;4.8;3.1;;;;;;;28.03;42.32715;937.6643;;;;
2023/06/04 08:41:26;;;;;;;6.2;2.9;;;;;;;27.13;42.72754;937.6456;;;;
2023/06/04 08:43:52;;;;;;;4.9;3.2;;;;;;;27.69;42.16406;937.6415;;;;
2023/06/04 08:46:17;;;;;;;3.5;3.1;;;;;;;27.68;42.09082;937.6199;;;;
2023/06/04 08:48:42;;;;;;;3.9;3;;;;;;;26.51;45.5459;937.5944;;;;
2023/06/04 08:51:12;;;;;;;4.1;3;;;;;;;25.08;47.66699;937.5824;;;;
2023/06/04 08:53:53;;;;;;;3.3;3;;;;;;;25.56;45.49707;937.61;;;;
2023/06/04 08:56:17;;;;;;;4.1;3.1;;;;;;;27.34;42.07227;937.7012;;;;
2023/06/04 08:58:40;;;;;;;4.4;3.7;;;;;;;27.55;41.16504;937.6661;;;;
2023/06/04 09:01:09;;;;;;;5.1;2.9;;;;;;;27.65;41.83984;937.6314;;;;
2023/06/04 09:03:35;;;;;;;3.9;3.2;;;;;;;27.1;41.71777;937.6497;;;;
2023/06/04 09:05:59;;;;;;;4.2;3.2;;;;;;;26.58;46.39355;937.6062;;;;
2023/06/04 09:08:30;;;;;;;3.8;2.8;;;;;;;27.22;41.7998;937.6177;;;;
2023/06/04 09:11:00;;;;;;;5.2;3.5;;;;;;;26.02;44.13574;937.6873;;;;
2023/06/04 09:13:25;;;;;;;4.1;3.2;;;;;;;25.77;47.60938;937.6364;;;;
2023/06/04 09:15:53;;;;;;;3.5;3.1;;;;;;;25.9;44.58594;937.6273;;;;
2023/06/04 09:18:18;;;;;;;5.2;3.2;;;;;;;26.42;43.02734;937.6038;;;;
2023/06/04 09:20:45;;;;;;;3.8;3.4;;;;;;;25.47;45.31055;937.5812;;;;
2023/06/04 09:23:10;;;;;;;5;3.1;;;;;;;26.58;41.81152;937.6575;;;;
2023/06/04 09:25:37;;;;;;;4.1;3.1;;;;;;;25.87;43.15137;937.6061;;;;
2023/06/04 09:28:07;;;;;;;5.4;3.1;;;;;;;27.29;39.10254;937.5723;;;;
2023/06/04 09:30:31;;;;;;;5.4;3.4;;;;;;;26.81;41.76074;937.5516;;;;
2023/06/04 09:33:03;;;;;;;5.7;3.7;;;;;;;27.29;39.74316;937.5635;;;;
2023/06/04 09:35:32;;;;;;;4.5;3.3;;;;;;;26.15;41.30957;937.623;;;;
2023/06/04 09:38:02;;;;;;;4.6;3.5;;;;;;;26.92;41.6416;937.5667;;;;
2023/06/04 09:40:27;;;;;;;5.6;3.3;;;;;;;26.35;43.80176;937.5593;;;;
2023/06/04 09:42:56;;;;;;;5.1;3.6;;;;;;;26.54;42.35254;937.5183;;;;
2023/06/04 09:45:20;;;;;;;4.6;3.3;;;;;;;26.61;42.93848;937.5189;;;;
2023/06/04 09:47:49;;;;;;;5.6;3.5;;;;;;;25.82;42.28418;937.4761;;;;
2023/06/04 09:50:14;;;;;;;6;3.6;;;;;;;25.52;45.38574;937.4664;;;;
2023/06/04 09:52:39;;;;;;;4.5;3.6;;;;;;;25.54;42.74121;937.4508;;;;
2023/06/04 09:55:07;;;;;;;5.7;3.5;;;;;;;24.22;47.15039;937.4858;;;;
2023/06/04 09:57:35;;;;;;;5.1;3.2;;;;;;;24.21;46.6084;937.4576;;;;
2023/06/04 09:59:57;;;;;;;5.3;4;;;;;;;24.32;48.54004;937.4695;;;;
2023/06/04 10:02:27;;;;;;;5.9;3.8;;;;;;;25.07;44.23145;937.3538;;;;
2023/06/04 10:04:53;;;;;;;6.5;3.7;;;;;;;24.58;48.60352;937.318;;;;
2023/06/04 10:07:22;;;;;;;4.9;3.6;;;;;;;24.87;46.77148;937.3995;;;;
2023/06/04 10:09:47;;;;;;;5.5;3.3;;;;;;;23.72;47.8623;937.3599;;;;
2023/06/04 10:12:17;;;;;;;8.8;4.4;;;;;;;23.71;48.79102;937.4302;;;;
2023/06/04 10:14:42;;;;;;;6.9;3.8;;;;;;;23.39;50.37891;937.3564;;;;
2023/06/04 10:17:06;;;;;;;5.5;4;;;;;;;23.54;51.5127;937.4263;;;;
2023/06/04 10:19:34;;;;;;;6.5;3.9;;;;;;;23.53;48.92383;937.3071;;;;
2023/06/04 10:22:00;;;;;;;6.3;4;;;;;;;23.08;50.13184;937.382;;;;
2023/06/04 10:24:26;;;;;;;5.5;4;;;;;;;22.69;52.69531;937.3582;;;;
2023/06/04 10:26:51;;;;;;;6.8;4;;;;;;;22.28;52.84375;937.4374;;;;
2023/06/04 10:29:16;;;;;;;8.1;3.6;;;;;;;22.34;52.65332;937.4034;;;;
2023/06/04 10:31:42;;;;;;;7.5;3.8;;;;;;;22.31;51.07715;937.4062;;;;
2023/06/04 10:34:06;;;;;;;5.3;3.7;;;;;;;22.64;50.84473;937.3619;;;;
2023/06/04 10:36:37;;;;;;;6;3.8;;;;;;;22.92;50.36133;937.3563;;;;
2023/06/04 10:39:00;;;;;;;6.3;3.6;;;;;;;23.03;51.83008;937.3386;;;;
2023/06/04 10:41:26;;;;;;;4.1;3.7;;;;;;;23.33;51.22949;937.3622;;;;
2023/06/04 10:43:54;;;;;;;5.4;3.5;;;;;;;23.84;48.81641;937.2836;;;;
2023/06/04 10:46:19;;;;;;;6.2;3.6;;;;;;;24.39;48.3125;937.3191;;;;
2023/06/04 10:48:49;;;;;;;5.1;3.6;;;;;;;24.52;47.5127;937.3175;;;;
2023/06/04 10:51:17;;;;;;;6.3;3.5;;;;;;;24.38;46.33105;937.3962;;;;
2023/06/04 10:53:42;;;;;;;4.8;3.8;;;;;;;24.64;43.59863;937.3361;;;;
2023/06/04 10:56:08;;;;;;;5.7;3.8;;;;;;;23.96;47.65332;937.3098;;;;
2023/06/04 10:58:33;;;;;;;5.2;3.8;;;;;;;23.04;50.84375;937.3074;;;;
2023/06/04 11:01:00;;;;;;;4.7;3.6;;;;;;;23.13;50.00879;937.3141;;;;
2023/06/04 11:03:25;;;;;;;5.6;3.5;;;;;;;23.44;47.83301;937.3116;;;;
2023/06/04 11:05:50;;;;;;;4.6;3.7;;;;;;;23.39;49.30859;937.3362;;;;
2023/06/04 11:08:17;;;;;;;5.4;3.9;;;;;;;23.51;48.82813;937.278;;;;
2023/06/04 11:10:42;;;;;;;5.7;3.6;;;;;;;23.5;50.26172;937.2717;;;;
2023/06/04 11:13:10;;;;;;;5.3;3.8;;;;;;;23.78;47.78711;937.2743;;;;
2023/06/04 11:15:34;;;;;;;6.1;3.7;;;;;;;24;46.20898;937.2162;;;;
2023/06/04 11:18:03;;;;;;;4.6;3.8;;;;;;;24.26;44.69336;937.1911;;;;
2023/06/04 11:20:28;;;;;;;6.4;3.8;;;;;;;24.13;44.53906;937.1974;;;;
2023/06/04 11:22:55;;;;;;;7.4;3.6;;;;;;;24.4;46.82813;937.2242;;;;
2023/06/04 11:25:22;;;;;;;7.1;3.6;;;;;;;24.18;46.34668;937.2442;;;;
2023/06/04 11:27:47;;;;;;;4.7;3.7;;;;;;;24.09;45.71289;937.2058;;;;
2023/06/04 11:30:14;;;;;;;8.5;3.7;;;;;;;24.64;44.47266;937.133;;;;
2023/06/04 11:32:43;;;;;;;6.6;4.7;;;;;;;25.08;41.65918;937.0895;;;;
2023/06/04 11:35:16;;;;;;;3.8;2.9;;;;;;;24.99;43.59766;937.2098;;;;
2023/06/04 11:37:40;;;;;;;4.6;3.5;;;;;;;25.18;41.7041;937.1605;;;;
2023/06/04 11:40:06;;;;;;;5.7;3.4;;;;;;;25;43.70508;937.2104;;;;
2023/06/04 11:42:31;;;;;;;7.5;3.4;;;;;;;25.17;41.38477;937.1202;;;;
2023/06/04 11:44:55;;;;;;;5.9;3.5;;;;;;;25.08;44.63379;937.1555;;;;
2023/06/04 11:47:24;;;;;;;5.4;3.7;;;;;;;25.38;41.90039;937.1451;;;;
2023/06/04 11:49:50;;;;;;;4.5;3.4;;;;;;;25.9;40.36426;937.0963;;;;
2023/06/04 11:52:17;;;;;;;7.1;3.4;;;;;;;25.72;39.46094;937.0197;;;;
2023/06/04 11:54:42;;;;;;;6;3.5;;;;;;;25.15;43.40137;937.0607;;;;
2023/06/04 11:57:07;;;;;;;5.5;3.3;;;;;;;24.47;43.86523;936.978;;;;
2023/06/04 11:59:35;;;;;;;4.6;3.2;;;;;;;24.67;45.44238;937.0455;;;;
2023/06/04 12:02:00;;;;;;;4.8;3.7;;;;;;;24.83;42.0498;937.0876;;;;
2023/06/04 12:04:28;;;;;;;5.3;3.7;;;;;;;23.8;46.03613;937.0748;;;;
2023/06/04 12:06:54;;;;;;;6.2;3.4;;;;;;;23.18;47.06445;937.1609;;;;
2023/06/04 12:09:21;;;;;;;6.2;3.3;;;;;;;23.08;48.12402;937.0123;;;;
2023/06/04 12:11:46;;;;;;;7.4;3.7;;;;;;;23.6;48.12012;937.1149;;;;
2023/06/04 12:14:13;;;;;;;5.6;3.6;;;;;;;23.68;45.15234;937.0081;;;;
2023/06/04 12:16:38;;;;;;;5.3;3.7;;;;;;;23.53;46.31348;937.0249;;;;
2023/06/04 12:19:06;;;;;;;5.7;3.3;;;;;;;24.06;43.60156;936.9852;;;;
2023/06/04 12:21:30;;;;;;;4.7;3.5;;;;;;;24.79;43.55566;936.9932;;;;
2023/06/04 12:23:55;;;;;;;5.6;3.6;;;;;;;25;44.35449;936.9886;;;;
2023/06/04 12:26:23;;;;;;;5.4;3.8;;;;;;;25.2;43.06445;937.0239;;;;
2023/06/04 12:28:46;;;;;;;6.6;3.9;;;;;;;25.44;41.44434;937.0528;;;;
2023/06/04 12:31:15;;;;;;;7;3.4;;;;;;;25.66;40.61523;937.0623;;;;
2023/06/04 12:33:40;;;;;;;5.5;3.6;;;;;;;25.88;42.89258;937.0452;;;;
2023/06/04 12:36:09;;;;;;;7.2;3.5;;;;;;;25.45;43.63086;936.9871;;;;
2023/06/04 12:38:37;;;;;;;5.7;3.7;;;;;;;25.33;42.9707;937.0308;;;;
2023/06/04 12:41:02;;;;;;;5.5;3.3;;;;;;;25.7;41.48047;937.0656;;;;
2023/06/04 12:43:33;;;;;;;4;3.3;;;;;;;25.9;42.43359;937.0291;;;;
2023/06/04 12:45:55;;;;;;;5.5;3.2;;;;;;;25.99;40.29004;937.0122;;;;
2023/06/04 12:48:21;;;;;;;4.7;3.5;;;;;;;24.69;42.66113;936.967;;;;
2023/06/04 12:50:46;;;;;;;5.4;3.6;;;;;;;25.12;40.87305;937.0556;;;;
2023/06/04 12:53:11;;;;;;;6.3;3.2;;;;;;;25.43;40.59375;937.0025;;;;
2023/06/04 12:55:39;;;;;;;4.8;3.1;;;;;;;24.74;43.62109;937.0266;;;;
2023/06/04 12:58:05;;;;;;;4.9;3.2;;;;;;;24.23;43.2998;936.9363;;;;
2023/06/04 13:00:34;;;;;;;4.4;3.7;;;;;;;24.52;41.72559;936.9351;;;;
2023/06/04 13:03:06;;;;;;;6.1;3.4;;;;;;;24.86;40.23535;936.995;;;;
2023/06/04 13:05:35;;;;;;;4.5;3.3;;;;;;;24.45;44.14648;937.0268;;;;
2023/06/04 13:08:01;;;;;;;5;3.3;;;;;;;24.15;43.55176;936.9846;;;;
2023/06/04 13:10:28;;;;;;;6.9;3.5;;;;;;;23.62;45.88867;937.0222;;;;
2023/06/04 13:12:53;;;;;;;7.3;3.2;;;;;;;23.4;46.5;937.0969;;;;
2023/06/04 13:15:19;;;;;;;6.6;3.5;;;;;;;23.45;46.5166;937.0683;;;;
2023/06/04 13:17:44;;;;;;;5.5;3.6;;;;;;;23.36;45.24902;937.1149;;;;
2023/06/04 13:20:16;;;;;;;6.1;3.4;;;;;;;23.3;44.78418;937.0475;;;;
2023/06/04 13:22:46;;;;;;;6.8;3.8;;;;;;;23.48;44.42578;937.1077;;;;
2023/06/04 13:25:11;;;;;;;5.5;3.2;;;;;;;23.45;46.07031;937.0844;;;;
2023/06/04 13:27:40;;;;;;;4.4;3.4;;;;;;;23.16;45.41797;937.1439;;;;
2023/06/04 13:30:05;;;;;;;6.3;3.5;;;;;;;22.75;46.70215;937.2609;;;;
2023/06/04 13:32:31;;;;;;;6;3.5;;;;;;;23.04;46.10938;937.2277;;;;
2023/06/04 13:34:57;;;;;;;6.2;3.6;;;;;;;23.12;45.97656;937.2748;;;;
2023/06/04 13:37:24;;;;;;;4.9;3.4;;;;;;;23.05;45.05469;937.2993;;;;
2023/06/04 13:39:49;;;;;;;5.8;3.1;;;;;;;22.81;45.69922;937.374;;;;
2023/06/04 13:42:15;;;;;;;6.3;3.3;;;;;;;22.2;46.33887;937.4118;;;;
2023/06/04 13:44:44;;;;;;;4.6;3.4;;;;;;;21.75;49.4668;937.4351;;;;
2023/06/04 13:47:09;;;;;;;5.2;3.5;;;;;;;21.7;48.00781;937.4563;;;;
2023/06/04 13:49:38;;;;;;;5.5;3.7;;;;;;;21.67;49.03613;937.5481;;;;
2023/06/04 13:52:06;;;;;;;5.4;3.6;;;;;;;21.45;47.83008;937.5366;;;;
2023/06/04 13:54:31;;;;;;;6;3.1;;;;;;;21.15;46.4873;937.4718;;;;
2023/06/04 13:56:56;;;;;;;3.5;3.2;;;;;;;21.02;48.74219;937.5828;;;;
2023/06/04 13:59:22;;;;;;;6.4;3.4;;;;;;;21.03;49.88867;937.5803;;;;
2023/06/04 14:01:49;;;;;;;4.9;3.4;;;;;;;21.05;50.24316;937.5633;;;;
2023/06/04 14:04:18;;;;;;;4.1;3.3;;;;;;;21.08;51.16992;937.4718;;;;
2023/06/04 14:06:44;;;;;;;4.9;3.5;;;;;;;20.97;52.6543;937.5179;;;;
2023/06/04 14:09:12;;;;;;;9.6;3.4;;;;;;;20.81;54.69238;937.5544;;;;
2023/06/04 14:11:36;;;;;;;5.6;3.8;;;;;;;20.4;57.25684;937.5432;;;;
2023/06/04 14:14:04;;;;;;;5.3;3.6;;;;;;;20.35;58.0332;937.6046;;;;
2023/06/04 14:16:29;;;;;;;5.1;3.4;;;;;;;20.4;58.0752;937.5488;;;;
2023/06/04 14:18:56;;;;;;;6.2;3.8;;;;;;;20.29;58.21191;937.6208;;;;
2023/06/04 14:21:22;;;;;;;5.5;3.8;;;;;;;20.37;59.85742;937.6781;;;;
2023/06/04 14:23:49;;;;;;;4.8;3.5;;;;;;;20.44;58.97949;937.676;;;;
2023/06/04 14:26:13;;;;;;;6.1;3.9;;;;;;;20.69;59.1416;937.7053;;;;
2023/06/04 14:28:42;;;;;;;5;3.4;;;;;;;20.8;57.47266;937.645;;;;
2023/06/04 14:31:07;;;;;;;4.7;3.6;;;;;;;20.83;57.23047;937.7003;;;;
2023/06/04 14:33:37;;;;;;;7.8;3.5;;;;;;;20.82;57.55664;937.7514;;;;
2023/06/04 14:36:02;;;;;;;4.1;3.3;;;;;;;20.84;56.91602;937.705;;;;
2023/06/04 14:38:29;;;;;;;4.7;3.4;;;;;;;20.99;56.375;937.6533;;;;
2023/06/04 14:40:55;;;;;;;6.6;3.6;;;;;;;20.78;56.40723;937.6384;;;;
2023/06/04 14:43:25;;;;;;;4.9;3.2;;;;;;;20.8;56.29199;937.6558;;;;
2023/06/04 14:45:55;;;;;;;4.6;3.5;;;;;;;20.86;56.86035;937.5943;;;;
2023/06/04 14:48:25;;;;;;;5.2;3.5;;;;;;;21.07;56.89844;937.6188;;;;
2023/06/04 14:50:53;;;;;;;5.6;3.3;;;;;;;21.07;55.625;937.6526;;;;
2023/06/04 14:53:15;;;;;;;5;3.1;;;;;;;21.04;57.98438;937.6131;;;;
2023/06/04 14:55:41;;;;;;;4.9;3.4;;;;;;;21.1;55.37109;937.6703;;;;
2023/06/04 14:58:06;;;;;;;3.9;3.1;;;;;;;21.1;56.62305;937.7254;;;;
2023/06/04 15:00:37;;;;;;;4.3;3.4;;;;;;;21.21;55.58496;937.7209;;;;
2023/06/04 15:03:07;;;;;;;4.8;3.3;;;;;;;21.08;58.05859;937.7836;;;;
2023/06/04 15:05:38;;;;;;;4.7;3.5;;;;;;;20.74;59.52148;937.7296;;;;
2023/06/04 15:08:07;;;;;;;6.5;3.4;;;;;;;20.75;58.61133;937.7455;;;;
2023/06/04 15:10:33;;;;;;;6.9;3.5;;;;;;;20.65;59.82617;937.665;;;;
2023/06/04 15:13:01;;;;;;;5.1;3.8;;;;;;;20.46;59.58984;937.7327;;;;
2023/06/04 15:15:26;;;;;;;6.9;3.7;;;;;;;20.38;59.90625;937.7062;;;;
2023/06/04 15:17:54;;;;;;;7;3.3;;;;;;;20.37;60.12598;937.7606;;;;
2023/06/04 15:20:27;;;;;;;4.8;3.4;;;;;;;20.4;59.68652;937.8237;;;;
2023/06/04 15:22:56;;;;;;;4.5;3.6;;;;;;;20.15;60.8418;937.8339;;;;
2023/06/04 15:25:21;;;;;;;5.5;3.6;;;;;;;19.75;62.31641;937.8694;;;;
2023/06/04 15:27:50;;;;;;;4.8;3.4;;;;;;;19.37;63.4043;937.9531;;;;
2023/06/04 15:30:17;;;;;;;5;3.4;;;;;;;19.4;63.44336;937.9147;;;;
2023/06/04 15:32:46;;;;;;;4.4;3.4;;;;;;;19.55;63.66309;937.9242;;;;
2023/06/04 15:35:16;;;;;;;5.6;2.9;;;;;;;19.61;63.48438;937.9768;;;;
2023/06/04 15:37:41;;;;;;;4.4;3.2;;;;;;;19.33;64.76074;937.9511;;;;
2023/06/04 15:40:15;;;;;;;5.3;3.2;;;;;;;19.19;66.33691;937.9913;;;;